createdAt,value
2023-01-01T00:00:48.897Z,3.57
2023-01-01T00:03:16.083Z,3.00
2023-01-01T00:05:43.331Z,4.10
2023-01-01T00:08:10.424Z,5.57
2023-01-01T00:10:38.402Z,4.80
2023-01-01T00:13:05.538Z,3.70
2023-01-01T00:15:33.413Z,3.53
2023-01-01T00:18:00.445Z,4.10
2023-01-01T00:20:33.105Z,4.43
2023-01-01T00:23:02.313Z,4.97
2023-01-01T00:25:29.421Z,4.97
2023-01-01T00:27:56.647Z,5.40
2023-01-01T00:30:24.980Z,6.60
2023-01-01T00:32:54.817Z,5.87
2023-01-01T00:35:25.500Z,4.57
2023-01-01T00:37:53.726Z,4.93
2023-01-01T00:40:20.956Z,5.00
2023-01-01T00:42:48.039Z,4.90
2023-01-01T00:45:20.849Z,5.57
2023-01-01T00:47:50.135Z,5.77
2023-01-01T00:50:17.311Z,4.90
2023-01-01T00:52:44.451Z,5.70
2023-01-01T00:55:12.047Z,6.53
2023-01-01T00:57:39.155Z,5.10
2023-01-01T01:00:08.388Z,4.83
2023-01-01T01:02:35.698Z,4.50
2023-01-01T01:05:04.779Z,3.10
2023-01-01T01:07:39.816Z,3.73
2023-01-01T01:10:09.640Z,3.60
2023-01-01T01:12:36.928Z,3.40
2023-01-01T01:15:05.474Z,3.53
2023-01-01T01:17:33.047Z,3.93
2023-01-01T01:20:00.195Z,3.50
2023-01-01T01:22:29.105Z,3.50
2023-01-01T01:24:57.403Z,4.00
2023-01-01T01:27:24.888Z,3.87
2023-01-01T01:29:52.418Z,3.87
2023-01-01T01:32:20.154Z,3.50
2023-01-01T01:34:47.461Z,3.10
2023-01-01T01:37:14.947Z,3.00
2023-01-01T01:39:42.283Z,4.27
2023-01-01T01:42:17.997Z,3.70
2023-01-01T01:44:52.953Z,4.70
2023-01-01T01:47:42.833Z,3.53
2023-01-01T01:50:36.076Z,5.00
2023-01-01T01:53:27.928Z,3.33
2023-01-01T01:56:01.961Z,3.10
2023-01-01T01:58:31.342Z,2.70
2023-01-01T02:00:59.888Z,2.70
2023-01-01T02:03:32.684Z,2.87
2023-01-01T02:05:59.953Z,2.83
2023-01-01T02:08:28.210Z,2.70
2023-01-01T02:10:55.197Z,2.90
2023-01-01T02:13:22.659Z,2.53
2023-01-01T02:16:50.067Z,2.03
2023-01-01T02:19:46.228Z,2.63
2023-01-01T02:22:43.699Z,2.10
2023-01-01T02:26:05.999Z,1.77
2023-01-01T02:28:46.498Z,2.20
2023-01-01T02:31:23.366Z,1.73
2023-01-01T02:33:56.998Z,2.13
2023-01-01T02:36:27.325Z,1.67
2023-01-01T02:38:57.230Z,1.67
2023-01-01T02:41:33.095Z,2.37
2023-01-01T02:46:33.290Z,3.03
2023-01-01T02:49:06.193Z,2.30
2023-01-01T02:52:02.595Z,2.23
2023-01-01T02:54:51.969Z,2.40
2023-01-01T03:00:31.367Z,1.77
2023-01-01T03:03:11.946Z,2.50
2023-01-01T03:06:22.618Z,1.50
2023-01-01T03:09:11.294Z,1.47
2023-01-01T03:11:57.344Z,1.70
2023-01-01T03:14:34.949Z,1.50
2023-01-01T03:17:15.321Z,1.53
2023-01-01T03:19:43.660Z,1.63
2023-01-01T03:22:25.741Z,2.17
2023-01-01T03:25:09.494Z,1.70
2023-01-01T03:28:00.110Z,1.50
2023-01-01T03:30:28.814Z,1.93
2023-01-01T03:33:08.066Z,1.40
2023-01-01T03:35:47.843Z,1.90
2023-01-01T03:38:22.750Z,1.70
2023-01-01T03:40:56.828Z,2.57
2023-01-01T03:43:53.165Z,1.80
2023-01-01T03:46:28.541Z,1.40
2023-01-01T03:49:03.764Z,1.20
2023-01-01T03:52:05.722Z,1.40
2023-01-01T03:54:56.866Z,1.50
2023-01-01T03:57:52.846Z,1.27
2023-01-01T04:00:28.131Z,1.67
2023-01-01T04:03:23.861Z,1.33
2023-01-01T04:05:51.102Z,1.83
2023-01-01T04:08:18.724Z,1.40
2023-01-01T04:10:51.894Z,1.87
2023-01-01T04:13:19.020Z,2.20
2023-01-01T04:15:46.107Z,1.43
2023-01-01T04:18:13.191Z,1.63
2023-01-01T04:20:41.555Z,1.40
2023-01-01T04:23:10.560Z,1.90
2023-01-01T04:25:37.706Z,2.00
2023-01-01T04:28:05.132Z,2.30
2023-01-01T04:30:32.358Z,2.03
2023-01-01T04:32:59.450Z,1.47
2023-01-01T04:35:26.517Z,2.20
2023-01-01T04:37:53.603Z,2.37
2023-01-01T04:40:20.728Z,2.80
2023-01-01T04:42:47.843Z,1.57
2023-01-01T04:45:15.404Z,2.17
2023-01-01T04:47:42.944Z,2.57
2023-01-01T04:50:10.246Z,1.93
2023-01-01T04:52:37.568Z,2.20
2023-01-01T04:55:05.353Z,1.77
2023-01-01T04:57:32.492Z,2.33
2023-01-01T04:59:59.655Z,1.30
2023-01-01T05:02:27.311Z,1.90
2023-01-01T05:04:54.731Z,3.00
2023-01-01T05:07:21.891Z,2.30
2023-01-01T05:09:48.946Z,2.77
2023-01-01T05:12:15.971Z,2.10
2023-01-01T05:14:43.095Z,2.20
2023-01-01T05:17:10.185Z,2.50
2023-01-01T05:19:37.244Z,2.90
2023-01-01T05:22:10.392Z,2.10
2023-01-01T05:24:38.109Z,1.80
2023-01-01T05:27:06.577Z,1.80
2023-01-01T05:29:33.692Z,2.20
2023-01-01T05:32:00.848Z,2.17
2023-01-01T05:36:54.864Z,2.53
2023-01-01T05:39:21.949Z,1.90
2023-01-01T05:41:48.950Z,2.00
2023-01-01T05:44:17.371Z,2.87
2023-01-01T05:46:44.505Z,2.20
2023-01-01T05:49:12.651Z,2.10
2023-01-01T05:54:06.297Z,2.03
2023-01-01T05:56:33.525Z,1.87
2023-01-01T05:59:01.996Z,2.47
2023-01-01T06:01:31.274Z,2.37
2023-01-01T06:03:59.755Z,2.00
2023-01-01T06:06:33.320Z,1.70
2023-01-01T06:09:05.579Z,3.20
2023-01-01T06:11:33.418Z,1.67
2023-01-01T06:14:01.510Z,1.50
2023-01-01T06:16:30.658Z,2.13
2023-01-01T06:18:57.970Z,2.13
2023-01-01T06:21:27.318Z,2.07
2023-01-01T06:23:57.194Z,1.60
2023-01-01T06:26:28.675Z,2.10
2023-01-01T06:28:56.856Z,2.00
2023-01-01T06:31:25.395Z,2.40
2023-01-01T06:33:52.895Z,1.90
2023-01-01T06:36:22.830Z,1.90
2023-01-01T06:38:54.384Z,2.57
2023-01-01T06:41:25.039Z,1.80
2023-01-01T06:43:53.044Z,2.10
2023-01-01T06:46:32.862Z,2.83
2023-01-01T06:49:06.954Z,3.00
2023-01-01T06:51:39.436Z,2.50
2023-01-01T06:54:07.909Z,2.10
2023-01-01T06:56:36.087Z,2.60
2023-01-01T06:59:04.188Z,2.90
2023-01-01T07:01:35.872Z,2.57
2023-01-01T07:04:11.907Z,2.80
2023-01-01T07:06:39.483Z,2.70
2023-01-01T07:09:08.014Z,2.87
2023-01-01T07:11:36.091Z,2.20
2023-01-01T07:14:03.932Z,2.90
2023-01-01T07:16:31.233Z,3.90
2023-01-01T07:18:58.483Z,3.50
2023-01-01T07:21:29.939Z,3.30
2023-01-01T07:24:03.653Z,2.70
2023-01-01T07:26:32.502Z,3.07
2023-01-01T07:29:06.826Z,2.80
2023-01-01T07:31:40.989Z,2.70
2023-01-01T07:34:13.863Z,3.70
2023-01-01T07:36:41.755Z,3.10
2023-01-01T07:39:09.331Z,2.63
2023-01-01T07:41:36.926Z,3.80
2023-01-01T07:44:04.517Z,3.13
2023-01-01T07:46:34.616Z,2.53
2023-01-01T07:49:01.887Z,3.20
2023-01-01T07:51:29.092Z,3.00
2023-01-01T07:54:00.634Z,3.77
2023-01-01T07:56:31.194Z,3.20
2023-01-01T07:58:58.274Z,3.40
2023-01-01T08:01:25.433Z,3.57
2023-01-01T08:03:53.209Z,3.20
2023-01-01T08:06:20.398Z,3.57
2023-01-01T08:08:47.434Z,2.73
2023-01-01T08:11:14.590Z,3.20
2023-01-01T08:13:41.633Z,2.77
2023-01-01T08:16:09.023Z,3.03
2023-01-01T08:18:36.624Z,3.70
2023-01-01T08:21:04.627Z,2.73
2023-01-01T08:23:32.158Z,2.47
2023-01-01T08:26:01.916Z,2.93
2023-01-01T08:28:30.576Z,3.30
2023-01-01T08:30:58.158Z,2.53
2023-01-01T08:33:26.232Z,2.70
2023-01-01T08:35:54.479Z,3.00
2023-01-01T08:38:22.310Z,2.90
2023-01-01T08:40:49.375Z,2.30
2023-01-01T08:43:16.545Z,2.83
2023-01-01T08:45:43.959Z,2.80
2023-01-01T08:48:11.369Z,2.87
2023-01-01T08:50:38.438Z,2.07
2023-01-01T08:53:05.538Z,3.10
2023-01-01T08:55:32.680Z,2.37
2023-01-01T08:57:59.814Z,2.77
2023-01-01T09:00:27.022Z,2.23
2023-01-01T09:02:54.281Z,2.57
2023-01-01T09:05:21.477Z,2.80
2023-01-01T09:07:48.561Z,2.83
2023-01-01T09:10:15.722Z,2.10
2023-01-01T09:12:42.953Z,2.40
2023-01-01T09:15:17.047Z,2.47
2023-01-01T09:17:44.529Z,2.63
2023-01-01T09:20:11.810Z,2.20
2023-01-01T09:22:38.934Z,2.27
2023-01-01T09:25:06.442Z,3.07
2023-01-01T09:27:33.606Z,2.10
2023-01-01T09:30:00.689Z,1.83
2023-01-01T09:32:30.054Z,2.17
2023-01-01T09:34:57.565Z,2.60
2023-01-01T09:37:25.517Z,1.60
2023-01-01T09:39:53.154Z,2.60
2023-01-01T09:42:28.343Z,2.10
2023-01-01T09:45:13.104Z,2.70
2023-01-01T09:47:47.245Z,1.77
2023-01-01T09:50:28.100Z,1.87
2023-01-01T09:53:03.458Z,1.30
2023-01-01T09:56:02.528Z,1.90
2023-01-01T09:58:39.053Z,2.10
2023-01-01T10:01:41.407Z,1.87
2023-01-01T10:04:57.247Z,1.57
2023-01-01T10:08:08.474Z,2.07
2023-01-01T10:10:54.889Z,1.70
2023-01-01T10:13:43.174Z,2.47
2023-01-01T10:16:39.888Z,2.13
2023-01-01T10:19:32.943Z,1.93
2023-01-01T10:22:09.503Z,2.03
2023-01-01T10:24:41.547Z,2.37
2023-01-01T10:27:31.554Z,1.73
2023-01-01T10:30:05.087Z,1.90
2023-01-01T10:32:37.297Z,2.90
2023-01-01T10:35:14.847Z,2.37
2023-01-01T10:37:42.918Z,1.90
2023-01-01T10:40:21.608Z,1.90
2023-01-01T10:42:54.891Z,1.80
2023-01-01T10:45:35.584Z,2.30
2023-01-01T10:48:24.772Z,2.23
2023-01-01T10:50:53.767Z,3.00
2023-01-01T10:53:30.305Z,2.13
2023-01-01T10:56:11.369Z,1.90
2023-01-01T10:58:48.091Z,2.00
2023-01-01T11:01:18.446Z,1.53
2023-01-01T11:04:03.650Z,2.30
2023-01-01T11:06:37.538Z,2.20
2023-01-01T11:09:19.729Z,2.13
2023-01-01T11:11:48.895Z,1.60
2023-01-01T11:14:29.364Z,2.50
2023-01-01T11:16:57.832Z,1.93
2023-01-01T11:19:31.483Z,2.30
2023-01-01T11:21:59.637Z,1.97
2023-01-01T11:24:32.531Z,2.67
2023-01-01T11:27:23.041Z,2.00
2023-01-01T11:29:54.828Z,2.00
2023-01-01T11:32:41.898Z,2.47
2023-01-01T11:35:19.928Z,2.60
2023-01-01T11:37:49.230Z,2.07
2023-01-01T11:40:45.881Z,1.90
2023-01-01T11:43:28.104Z,2.80
2023-01-01T11:45:57.964Z,1.80
2023-01-01T11:48:30.543Z,1.80
2023-01-01T11:51:01.372Z,1.90
2023-01-01T11:53:33.427Z,1.97
2023-01-01T11:56:19.061Z,2.17
2023-01-01T11:59:05.547Z,2.60
2023-01-01T12:01:49.617Z,2.00
2023-01-01T12:04:22.931Z,2.40
2023-01-01T12:07:06.444Z,2.40
2023-01-01T12:09:57.664Z,2.00
2023-01-01T12:12:47.001Z,2.43
2023-01-01T12:15:36.918Z,2.13
2023-01-01T12:18:28.046Z,2.23
2023-01-01T12:21:02.191Z,1.73
2023-01-01T12:23:32.249Z,2.67
2023-01-01T12:26:32.390Z,2.20
2023-01-01T12:29:25.831Z,3.27
2023-01-01T12:32:31.427Z,2.73
2023-01-01T12:35:31.593Z,2.70
2023-01-01T12:38:14.034Z,2.80
2023-01-01T12:41:19.096Z,2.60
2023-01-01T12:44:23.595Z,2.23
2023-01-01T12:47:14.199Z,2.70
2023-01-01T12:49:56.300Z,3.00
2023-01-01T12:52:44.745Z,2.47
2023-01-01T12:55:33.783Z,3.00
2023-01-01T12:58:21.894Z,2.10
2023-01-01T13:00:59.083Z,2.20
2023-01-01T13:03:36.942Z,3.30
2023-01-01T13:06:06.931Z,2.80
2023-01-01T13:08:36.744Z,2.37
2023-01-01T13:11:06.231Z,3.70
2023-01-01T13:13:33.398Z,3.13
2023-01-01T13:16:00.570Z,3.00
2023-01-01T13:18:35.383Z,3.37
2023-01-01T13:21:21.943Z,3.73
2023-01-01T13:23:50.675Z,4.27
2023-01-01T13:26:26.724Z,3.93
2023-01-01T13:28:59.732Z,2.60
2023-01-01T13:31:39.524Z,2.27
2023-01-01T13:34:35.695Z,2.30
2023-01-01T13:37:14.804Z,2.67
2023-01-01T13:40:25.396Z,2.90
2023-01-01T13:42:52.810Z,2.57
2023-01-01T13:49:02.713Z,2.50
2023-01-01T13:52:12.874Z,2.20
2023-01-01T13:55:01.580Z,2.30
2023-01-01T13:57:59.929Z,2.60
2023-01-01T14:01:02.337Z,2.73
2023-01-01T14:03:38.935Z,2.10
2023-01-01T14:06:15.453Z,2.50
2023-01-01T14:08:42.549Z,2.90
2023-01-01T14:11:25.231Z,2.90
2023-01-01T14:13:52.388Z,2.50
2023-01-01T14:16:19.769Z,2.60
2023-01-01T14:18:53.866Z,2.70
2023-01-01T14:21:33.173Z,2.40
2023-01-01T14:24:07.649Z,2.60
2023-01-01T14:26:39.117Z,2.50
2023-01-01T14:29:10.055Z,2.37
2023-01-01T14:31:45.205Z,2.43
2023-01-01T14:34:30.568Z,3.10
2023-01-01T14:37:04.026Z,3.00
2023-01-01T14:39:34.357Z,2.93
2023-01-01T14:42:07.142Z,3.40
2023-01-01T14:44:42.945Z,3.70
2023-01-01T14:47:34.014Z,3.23
2023-01-01T14:50:13.183Z,4.23
2023-01-01T14:52:40.754Z,3.30
2023-01-01T14:55:16.875Z,3.63
2023-01-01T14:57:57.721Z,2.67
2023-01-01T15:00:32.155Z,3.40
2023-01-01T15:03:11.995Z,3.20
2023-01-01T15:05:41.316Z,3.27
2023-01-01T15:08:25.273Z,3.60
2023-01-01T15:10:53.867Z,2.40
2023-01-01T15:13:24.820Z,2.20
2023-01-01T15:16:09.548Z,3.50
2023-01-01T15:18:38.977Z,2.70
2023-01-01T15:21:33.745Z,2.50
2023-01-01T15:24:05.093Z,2.60
2023-01-01T15:26:45.505Z,2.80
2023-01-01T15:29:29.581Z,3.27
2023-01-01T15:32:27.615Z,4.60
2023-01-01T15:34:58.428Z,4.07
2023-01-01T15:37:44.267Z,4.20
2023-01-01T15:40:14.438Z,3.77
2023-01-01T15:42:45.899Z,4.00
2023-01-01T15:45:30.812Z,3.80
2023-01-01T15:48:30.692Z,3.43
2023-01-01T15:51:26.432Z,3.30
2023-01-01T15:53:58.930Z,3.50
2023-01-01T15:56:30.842Z,3.70
2023-01-01T15:59:09.496Z,3.60
2023-01-01T16:01:39.917Z,3.53
2023-01-01T16:04:29.337Z,3.80
2023-01-01T16:06:58.062Z,2.60
2023-01-01T16:09:25.933Z,3.47
2023-01-01T16:11:55.694Z,3.20
2023-01-01T16:14:23.948Z,3.53
2023-01-01T16:16:57.425Z,3.40
2023-01-01T16:19:25.453Z,3.70
2023-01-01T16:21:52.928Z,2.97
2023-01-01T16:24:20.910Z,3.17
2023-01-01T16:26:48.594Z,3.40
2023-01-01T16:29:15.897Z,3.50
2023-01-01T16:31:43.976Z,4.57
2023-01-01T16:34:14.657Z,4.17
2023-01-01T16:36:45.866Z,2.90
2023-01-01T16:39:12.983Z,4.87
2023-01-01T16:41:42.452Z,5.50
2023-01-01T16:44:16.690Z,4.43
2023-01-01T16:46:43.961Z,4.40
2023-01-01T16:49:11.155Z,4.70
2023-01-01T16:51:43.141Z,4.03
2023-01-01T16:54:11.530Z,4.77
2023-01-01T16:56:38.567Z,3.50
2023-01-01T16:59:05.848Z,4.70
2023-01-01T17:01:33.206Z,3.83
2023-01-01T17:04:01.083Z,4.80
2023-01-01T17:06:28.156Z,3.43
2023-01-01T17:08:55.351Z,3.50
2023-01-01T17:11:24.891Z,3.90
2023-01-01T17:13:52.729Z,3.87
2023-01-01T17:16:27.135Z,4.00
2023-01-01T17:21:45.458Z,4.60
2023-01-01T17:24:12.656Z,3.90
2023-01-01T17:26:39.841Z,3.47
2023-01-01T17:29:07.725Z,4.03
2023-01-01T17:31:35.884Z,2.70
2023-01-01T17:34:03.555Z,3.03
2023-01-01T17:36:31.165Z,2.60
2023-01-01T17:38:58.370Z,3.60
2023-01-01T17:41:28.052Z,3.60
2023-01-01T17:43:57.215Z,4.27
2023-01-01T17:46:31.023Z,3.10
2023-01-01T17:48:59.386Z,3.23
2023-01-01T17:51:27.322Z,3.53
2023-01-01T17:53:56.228Z,2.70
2023-01-01T17:56:24.683Z,3.33
2023-01-01T17:58:53.509Z,3.40
2023-01-01T18:01:24.017Z,2.37
2023-01-01T18:03:54.301Z,2.90
2023-01-01T18:06:22.004Z,3.40
2023-01-01T18:08:54.687Z,3.40
2023-01-01T18:11:21.882Z,3.73
2023-01-01T18:13:49.038Z,3.77
2023-01-01T18:16:16.403Z,4.17
2023-01-01T18:18:43.671Z,4.83
2023-01-01T18:21:15.113Z,3.77
2023-01-01T18:23:42.812Z,3.93
2023-01-01T18:26:11.356Z,4.13
2023-01-01T18:28:39.688Z,3.73
2023-01-01T18:31:15.698Z,4.60
2023-01-01T18:33:44.389Z,3.67
2023-01-01T18:36:14.761Z,3.97
2023-01-01T18:38:48.721Z,4.20
2023-01-01T18:41:46.884Z,3.63
2023-01-01T18:44:34.032Z,3.50
2023-01-01T18:47:07.420Z,3.30
2023-01-01T18:49:37.839Z,3.20
2023-01-01T18:52:08.018Z,4.00
2023-01-01T18:54:36.282Z,4.30
2023-01-01T18:57:22.426Z,3.90
2023-01-01T18:59:59.655Z,3.33
2023-01-01T19:02:52.125Z,3.07
2023-01-01T19:05:32.095Z,2.30
2023-01-01T19:08:08.723Z,3.27
2023-01-01T19:10:55.726Z,2.83
2023-01-01T19:13:37.925Z,2.60
2023-01-01T19:16:14.597Z,3.97
2023-01-01T19:18:50.973Z,3.80
2023-01-01T19:21:25.946Z,3.10
2023-01-01T19:23:55.883Z,2.93
2023-01-01T19:26:43.996Z,3.97
2023-01-01T19:29:24.626Z,3.70
2023-01-01T19:31:55.422Z,4.80
2023-01-01T19:34:24.973Z,5.70
2023-01-01T19:36:53.122Z,4.50
2023-01-01T19:39:20.824Z,3.83
2023-01-01T19:41:48.379Z,3.50
2023-01-01T19:44:21.381Z,4.00
2023-01-01T19:46:52.349Z,3.20
2023-01-01T19:49:20.107Z,3.17
2023-01-01T19:51:47.820Z,3.50
2023-01-01T19:54:15.595Z,3.87
2023-01-01T19:56:43.685Z,4.07
2023-01-01T19:59:11.318Z,4.30
2023-01-01T20:01:40.032Z,3.77
2023-01-01T20:04:10.666Z,2.93
2023-01-01T20:06:41.012Z,4.97
2023-01-01T20:09:11.142Z,4.00
2023-01-01T20:11:39.011Z,4.40
2023-01-01T20:14:06.181Z,4.30
2023-01-01T20:16:34.717Z,3.87
2023-01-01T20:19:01.863Z,3.17
2023-01-01T20:21:47.360Z,3.00
2023-01-01T20:24:14.531Z,5.30
2023-01-01T20:26:42.996Z,3.93
2023-01-01T20:29:21.912Z,3.03
2023-01-01T20:31:54.193Z,3.30
2023-01-01T20:34:22.669Z,2.63
2023-01-01T20:37:08.324Z,4.30
2023-01-01T20:39:38.969Z,3.60
2023-01-01T20:42:06.144Z,4.00
2023-01-01T20:44:33.478Z,3.40
2023-01-01T20:47:00.580Z,4.60
2023-01-01T20:49:27.717Z,3.60
2023-01-01T20:51:54.831Z,5.07
2023-01-01T20:54:23.705Z,4.20
2023-01-01T20:56:51.646Z,3.77
2023-01-01T20:59:36.464Z,5.23
2023-01-01T21:02:10.274Z,4.70
2023-01-01T21:04:39.385Z,4.50
2023-01-01T21:07:09.888Z,3.33
2023-01-01T21:09:39.213Z,3.83
2023-01-01T21:12:07.572Z,4.40
2023-01-01T21:14:35.467Z,4.20
2023-01-01T21:17:23.024Z,5.20
2023-01-01T21:19:54.666Z,4.10
2023-01-01T21:22:21.980Z,3.70
2023-01-01T21:24:53.969Z,3.47
2023-01-01T21:27:32.010Z,4.57
2023-01-01T21:29:59.677Z,5.03
2023-01-01T21:32:39.466Z,4.33
2023-01-01T21:35:33.084Z,4.30
2023-01-01T21:38:04.215Z,4.00
2023-01-01T21:40:59.449Z,4.23
2023-01-01T21:43:35.857Z,4.60
2023-01-01T21:46:18.727Z,4.60
2023-01-01T21:48:48.694Z,4.60
2023-01-01T21:51:36.996Z,5.00
2023-01-01T21:54:31.436Z,5.47
2023-01-01T21:57:01.557Z,4.60
2023-01-01T21:59:40.174Z,4.80
2023-01-01T22:02:07.417Z,4.97
2023-01-01T22:04:55.769Z,5.13
2023-01-01T22:07:57.177Z,4.60
2023-01-01T22:10:20.126Z,4.47
2023-01-01T22:12:47.764Z,5.03
2023-01-01T22:15:39.426Z,7.03
2023-01-01T22:18:12.609Z,7.20
2023-01-01T22:20:42.896Z,7.23
2023-01-01T22:23:41.043Z,8.03
2023-01-01T22:26:32.382Z,8.13
2023-01-01T22:29:22.583Z,6.93
2023-01-01T22:32:03.100Z,6.80
2023-01-01T22:34:30.328Z,7.20
2023-01-01T22:36:57.528Z,6.53
2023-01-01T22:39:30.004Z,5.67
2023-01-01T22:41:57.348Z,7.10
2023-01-01T22:44:26.985Z,6.17
2023-01-01T22:46:58.707Z,6.40
2023-01-01T22:49:40.968Z,6.83
2023-01-01T22:52:10.530Z,6.07
2023-01-01T22:54:37.583Z,5.70
2023-01-01T22:57:06.155Z,6.10
2023-01-01T22:59:33.209Z,5.07
2023-01-01T23:02:00.523Z,6.53
2023-01-01T23:04:27.639Z,5.60
2023-01-01T23:06:55.072Z,6.17
2023-01-01T23:09:22.217Z,5.63
2023-01-01T23:11:49.460Z,5.57
2023-01-01T23:14:38.879Z,5.60
2023-01-01T23:17:06.475Z,6.17
2023-01-01T23:19:34.361Z,6.37
2023-01-01T23:22:03.133Z,6.10
2023-01-01T23:24:31.704Z,6.07
2023-01-01T23:27:00.668Z,5.50
2023-01-01T23:29:32.331Z,5.60
2023-01-01T23:32:04.248Z,5.90
2023-01-01T23:34:31.535Z,7.37
2023-01-01T23:36:58.941Z,5.17
2023-01-01T23:39:26.059Z,5.17
2023-01-01T23:41:53.155Z,6.63
2023-01-01T23:44:20.839Z,6.77
2023-01-01T23:46:48.120Z,6.10
2023-01-01T23:49:15.572Z,6.37
2023-01-01T23:51:42.713Z,5.93
2023-01-01T23:54:10.302Z,7.53
2023-01-01T23:56:37.357Z,7.77
2023-01-01T23:59:04.643Z,7.37
